Time;durP1;ratioP1;P1;durP2;ratioP2;P2;SDS_P1;SDS_P2;PMS_P1;PMS_P2;Temp;Humidity;BMP_temperature;BMP_pressure;BME280_temperature;BME280_humidity;BME280_pressure;Samples;Min_cycle;Max_cycle;Signal;HPM_P1;HPM_P2
2022/10/14 00:00:35;;;;;;;14.15;9.20;;;11.20;99.90;;;;;;5087651;28;20584;-67
2022/10/14 00:03:00;;;;;;;14.38;10.82;;;11.10;99.90;;;;;;5091085;28;20062;-66
2022/10/14 00:05:26;;;;;;;9.27;6.15;;;11.10;99.90;;;;;;5087979;28;20445;-68
2022/10/14 00:07:52;;;;;;;9.60;5.50;;;11.10;99.90;;;;;;5083248;28;20130;-64
2022/10/14 00:10:18;;;;;;;22.40;8.65;;;11.00;99.90;;;;;;5069035;28;20050;-66
2022/10/14 00:12:44;;;;;;;17.60;7.88;;;11.10;99.90;;;;;;5090817;28;20036;-67
2022/10/14 00:15:09;;;;;;;20.85;9.45;;;11.10;99.90;;;;;;5088011;28;20044;-66
2022/10/14 00:17:35;;;;;;;15.55;9.48;;;11.10;99.90;;;;;;5090053;28;20497;-65
2022/10/14 00:20:01;;;;;;;83.22;12.90;;;11.10;99.90;;;;;;5090907;28;20066;-65
2022/10/14 00:22:27;;;;;;;169.15;13.98;;;11.20;99.90;;;;;;5075309;28;20055;-66
2022/10/14 00:24:54;;;;;;;119.20;12.52;;;11.20;99.90;;;;;;5087280;28;20028;-65
2022/10/14 00:27:19;;;;;;;99.93;14.52;;;11.10;99.90;;;;;;5071258;28;20052;-65
2022/10/14 00:29:45;;;;;;;174.38;13.80;;;11.20;99.90;;;;;;5089529;28;20146;-66
2022/10/14 00:32:11;;;;;;;165.10;13.80;;;11.10;99.90;;;;;;5094246;28;20047;-65
2022/10/14 00:34:36;;;;;;;168.85;13.95;;;11.10;99.90;;;;;;5093851;28;20040;-66
2022/10/14 00:37:02;;;;;;;180.07;14.75;;;11.00;99.90;;;;;;5077840;28;20044;-65
2022/10/14 00:39:28;;;;;;;108.80;14.10;;;11.00;99.90;;;;;;5088435;28;20048;-65
2022/10/14 00:41:53;;;;;;;107.85;15.13;;;11.00;99.90;;;;;;5069338;28;20046;-66
2022/10/14 00:44:19;;;;;;;72.70;15.02;;;11.00;99.90;;;;;;5053615;28;20048;-67
2022/10/14 00:46:47;;;;;;;170.95;18.15;;;11.10;99.90;;;;;;5047294;28;20040;-65
2022/10/14 00:49:14;;;;;;;62.28;15.43;;;11.00;99.90;;;;;;5070178;28;20047;-66
2022/10/14 00:51:44;;;;;;;80.63;19.13;;;11.00;99.90;;;;;;5067795;28;20036;-67
2022/10/14 00:54:12;;;;;;;62.13;20.00;;;11.10;99.90;;;;;;5072201;28;20570;-66
2022/10/14 00:56:38;;;;;;;52.03;20.75;;;11.10;99.90;;;;;;5068379;28;20052;-67
2022/10/14 00:59:06;;;;;;;37.03;17.20;;;11.20;99.90;;;;;;5052291;28;20456;-67
2022/10/14 01:01:32;;;;;;;38.63;17.85;;;11.20;99.90;;;;;;5052271;28;20054;-66
2022/10/14 01:03:58;;;;;;;56.95;19.73;;;11.30;99.90;;;;;;5070360;28;20261;-66
2022/10/14 01:06:58;;;;;;;67.10;21.10;;;11.30;99.90;;;;;;5069994;28;20571;-66
2022/10/14 01:09:33;;;;;;;103.72;22.70;;;11.30;99.90;;;;;;5069218;28;20044;-67
2022/10/14 01:12:05;;;;;;;139.27;21.85;;;11.40;99.90;;;;;;5068894;28;20080;-65
2022/10/14 01:14:40;;;;;;;88.40;20.57;;;11.30;99.90;;;;;;5069806;28;20039;-68
2022/10/14 01:17:17;;;;;;;46.60;17.77;;;11.40;99.90;;;;;;5066096;28;20294;-66
2022/10/14 01:19:48;;;;;;;46.95;18.48;;;11.40;99.90;;;;;;5075354;28;20490;-66
2022/10/14 01:22:26;;;;;;;56.30;20.67;;;11.40;99.90;;;;;;5072710;28;20036;-65
2022/10/14 01:25:28;;;;;;;62.13;20.45;;;11.50;99.90;;;;;;5074534;28;20073;-65
2022/10/14 01:28:08;;;;;;;48.97;19.27;;;11.50;99.90;;;;;;5089334;28;20483;-64
2022/10/14 01:30:43;;;;;;;56.03;19.98;;;11.50;99.90;;;;;;5072184;28;20043;-67
2022/10/14 01:33:25;;;;;;;98.80;21.83;;;11.50;99.90;;;;;;5072661;28;20036;-67
2022/10/14 01:36:27;;;;;;;58.83;20.13;;;11.50;99.90;;;;;;5073010;28;20052;-66
2022/10/14 01:38:59;;;;;;;65.82;20.40;;;11.50;99.90;;;;;;5055751;28;20380;-65
2022/10/14 01:41:31;;;;;;;67.93;20.97;;;11.60;99.90;;;;;;5072841;28;20081;-67
2022/10/14 01:44:06;;;;;;;69.93;21.70;;;11.60;99.90;;;;;;5077618;28;20737;-65
2022/10/14 01:46:33;;;;;;;60.30;20.63;;;11.50;99.90;;;;;;5066041;28;20036;-68
2022/10/14 01:49:04;;;;;;;57.85;21.42;;;11.60;99.90;;;;;;5073180;28;20085;-65
2022/10/14 01:51:38;;;;;;;58.80;21.80;;;11.50;99.90;;;;;;5073123;28;20477;-64
2022/10/14 01:54:10;;;;;;;51.92;21.67;;;11.50;99.90;;;;;;5070862;28;20123;-65
2022/10/14 01:56:36;;;;;;;59.83;22.50;;;11.60;99.90;;;;;;5071926;28;20040;-65
2022/10/14 01:59:03;;;;;;;124.25;23.63;;;11.60;99.90;;;;;;5071973;28;20048;-65
2022/10/14 02:01:28;;;;;;;51.85;20.83;;;11.50;99.90;;;;;;5069814;28;20478;-64
2022/10/14 02:03:54;;;;;;;52.00;22.40;;;11.50;99.90;;;;;;5071010;28;20047;-66
2022/10/14 02:06:31;;;;;;;48.03;20.65;;;11.50;99.90;;;;;;5065161;28;20046;-67
2022/10/14 02:09:20;;;;;;;181.20;24.92;;;11.60;99.90;;;;;;5067735;28;20040;-66
2022/10/14 02:12:04;;;;;;;70.47;21.10;;;11.50;99.90;;;;;;4957978;28;20085;-65
2022/10/14 02:14:40;;;;;;;93.80;21.77;;;11.50;99.90;;;;;;4968286;28;20061;-66
2022/10/14 02:17:15;;;;;;;54.97;20.08;;;11.50;99.90;;;;;;4973662;28;20144;-66
2022/10/14 02:19:57;;;;;;;52.92;19.50;;;11.50;99.90;;;;;;4972959;28;20169;-66
2022/10/14 02:22:32;;;;;;;49.45;17.33;;;11.50;99.90;;;;;;4973902;28;20390;-66
2022/10/14 02:25:06;;;;;;;59.67;17.20;;;11.40;99.90;;;;;;4973450;28;20042;-65
2022/10/14 02:27:33;;;;;;;107.15;17.77;;;11.40;99.90;;;;;;4973587;28;20503;-65
2022/10/14 02:30:00;;;;;;;50.00;16.60;;;11.30;99.90;;;;;;4973607;28;20402;-66
2022/10/14 02:32:27;;;;;;;65.40;17.02;;;11.30;99.90;;;;;;4957672;28;20042;-65
2022/10/14 02:34:57;;;;;;;67.72;17.30;;;11.20;99.90;;;;;;4990354;28;20030;-68
2022/10/14 02:37:24;;;;;;;169.23;19.55;;;11.20;99.90;;;;;;4973637;28;20169;-65
2022/10/14 02:40:13;;;;;;;54.10;18.15;;;11.20;99.90;;;;;;4970368;28;20402;-64
2022/10/14 02:42:39;;;;;;;61.35;17.73;;;11.20;99.90;;;;;;4954950;28;20398;-65
2022/10/14 02:45:06;;;;;;;65.72;17.70;;;11.20;99.90;;;;;;4954675;28;20073;-66
2022/10/14 02:47:32;;;;;;;41.03;17.33;;;11.20;99.90;;;;;;4969142;28;20042;-66
2022/10/14 02:49:58;;;;;;;140.63;20.83;;;11.20;99.90;;;;;;5056495;28;20059;-67
2022/10/14 02:52:24;;;;;;;51.38;17.27;;;11.10;99.90;;;;;;5051931;28;20040;-67
2022/10/14 02:54:49;;;;;;;49.10;20.05;;;11.10;99.90;;;;;;5056974;28;20069;-66
2022/10/14 02:57:15;;;;;;;90.05;20.60;;;11.10;99.90;;;;;;5053151;28;20047;-65
2022/10/14 02:59:40;;;;;;;114.43;19.88;;;11.10;99.90;;;;;;5052603;28;20141;-65
2022/10/14 03:02:06;;;;;;;47.60;19.38;;;11.00;99.90;;;;;;5056504;28;20047;-67
2022/10/14 03:04:33;;;;;;;239.10;22.30;;;10.90;99.90;;;;;;5053042;28;20119;-65
2022/10/14 03:06:58;;;;;;;118.05;18.15;;;10.90;99.90;;;;;;5061488;28;20028;-67
2022/10/14 03:09:24;;;;;;;164.85;19.02;;;10.90;99.90;;;;;;5054246;28;20043;-65
2022/10/14 03:11:49;;;;;;;114.43;19.40;;;10.70;99.90;;;;;;5051802;28;20025;-65
2022/10/14 03:14:15;;;;;;;123.38;19.35;;;10.70;99.90;;;;;;5036098;28;20088;-67
2022/10/14 03:16:41;;;;;;;108.53;18.40;;;10.60;99.90;;;;;;5040508;28;20053;-64
2022/10/14 03:19:06;;;;;;;73.93;18.75;;;10.60;99.90;;;;;;5056279;28;20047;-66
2022/10/14 03:21:32;;;;;;;46.92;16.70;;;10.50;99.90;;;;;;5051677;28;20071;-67
2022/10/14 03:23:57;;;;;;;93.13;16.38;;;10.60;99.90;;;;;;5052377;28;20373;-66
2022/10/14 03:26:25;;;;;;;45.03;15.65;;;10.50;99.90;;;;;;5052373;28;20455;-65
2022/10/14 03:28:50;;;;;;;46.50;15.85;;;10.50;99.90;;;;;;5051798;28;20041;-67
2022/10/14 03:31:16;;;;;;;107.45;16.98;;;10.60;99.90;;;;;;5051882;28;20070;-64
2022/10/14 03:33:41;;;;;;;39.38;14.80;;;10.60;99.90;;;;;;5051326;28;20052;-65
2022/10/14 03:36:07;;;;;;;142.32;16.85;;;10.60;99.90;;;;;;5058633;28;20093;-65
2022/10/14 03:38:33;;;;;;;96.88;16.38;;;10.60;99.90;;;;;;5055017;28;20114;-66
2022/10/14 03:40:58;;;;;;;56.33;14.68;;;10.60;99.90;;;;;;5090963;28;20079;-65
2022/10/14 03:43:24;;;;;;;45.20;14.45;;;10.60;99.90;;;;;;5088710;28;20047;-67
2022/10/14 03:45:49;;;;;;;77.55;15.18;;;10.60;99.90;;;;;;5069081;28;20096;-66
2022/10/14 03:48:15;;;;;;;58.95;15.45;;;10.70;99.90;;;;;;5076589;28;20036;-66
2022/10/14 03:50:41;;;;;;;50.53;13.93;;;10.60;99.90;;;;;;5077915;28;20095;-66
2022/10/14 03:53:06;;;;;;;26.50;13.18;;;10.70;99.90;;;;;;5059894;28;20051;-66
2022/10/14 03:55:32;;;;;;;55.95;13.88;;;10.60;99.90;;;;;;5078041;28;20549;-64
2022/10/14 03:57:58;;;;;;;31.88;14.55;;;10.60;99.90;;;;;;5053630;28;20048;-67
2022/10/14 04:00:23;;;;;;;41.25;14.95;;;10.60;99.90;;;;;;5072064;28;20040;-66
2022/10/14 04:02:49;;;;;;;58.63;14.43;;;10.60;99.90;;;;;;5070449;28;20040;-66
2022/10/14 04:05:14;;;;;;;66.70;14.73;;;10.70;99.90;;;;;;5071577;28;20063;-67
2022/10/14 04:07:40;;;;;;;81.70;14.63;;;10.70;99.90;;;;;;5090585;28;20119;-65
2022/10/14 04:10:06;;;;;;;42.85;14.18;;;10.60;99.90;;;;;;5072371;28;20081;-66
2022/10/14 04:12:32;;;;;;;70.68;14.35;;;10.60;99.90;;;;;;5074112;28;20044;-65
2022/10/14 04:14:58;;;;;;;48.83;14.15;;;10.60;99.90;;;;;;5071885;28;20122;-66
2022/10/14 04:17:24;;;;;;;60.92;14.70;;;10.50;99.90;;;;;;5070209;28;20044;-64
2022/10/14 04:19:50;;;;;;;46.17;14.00;;;10.50;99.90;;;;;;5053760;28;20048;-67
2022/10/14 04:22:16;;;;;;;27.80;13.27;;;10.50;99.90;;;;;;5070308;28;20075;-66
2022/10/14 04:24:42;;;;;;;29.95;13.10;;;10.40;99.90;;;;;;5071249;28;20045;-66
2022/10/14 04:27:07;;;;;;;51.38;14.50;;;10.40;99.90;;;;;;5073657;28;20042;-65
2022/10/14 04:29:33;;;;;;;64.85;13.82;;;10.40;99.90;;;;;;5071733;28;20082;-66
2022/10/14 04:31:59;;;;;;;37.00;14.50;;;10.40;99.90;;;;;;5072968;28;20040;-65
2022/10/14 04:34:24;;;;;;;48.90;14.63;;;10.40;99.90;;;;;;5071043;28;20098;-65
2022/10/14 04:36:52;;;;;;;34.67;14.13;;;10.30;99.90;;;;;;5071007;28;20097;-64
2022/10/14 04:39:17;;;;;;;27.83;14.27;;;10.30;99.90;;;;;;5074838;28;20057;-67
2022/10/14 04:41:43;;;;;;;32.15;14.40;;;10.30;99.90;;;;;;5087269;28;20040;-67
2022/10/14 04:44:09;;;;;;;28.35;13.85;;;10.30;99.90;;;;;;5088132;28;20096;-65
2022/10/14 04:46:34;;;;;;;25.08;13.93;;;10.30;99.90;;;;;;5086784;28;20044;-66
2022/10/14 04:49:00;;;;;;;32.33;15.00;;;10.30;99.90;;;;;;5088133;28;20116;-64
2022/10/14 04:51:25;;;;;;;52.78;14.73;;;10.30;99.90;;;;;;5090670;28;20036;-65
2022/10/14 04:53:51;;;;;;;37.13;14.50;;;10.30;99.90;;;;;;5099523;28;20039;-67
2022/10/14 04:56:16;;;;;;;28.50;13.82;;;10.30;99.90;;;;;;5091936;28;21864;-66
2022/10/14 04:58:42;;;;;;;25.52;14.02;;;10.30;99.90;;;;;;5091335;28;20043;-66
2022/10/14 05:01:08;;;;;;;45.95;15.07;;;10.40;99.90;;;;;;5095515;28;20118;-67
2022/10/14 05:03:33;;;;;;;31.08;15.20;;;10.40;99.90;;;;;;5092468;28;20036;-65
2022/10/14 05:05:59;;;;;;;30.17;14.70;;;10.40;99.90;;;;;;5095644;28;20043;-65
2022/10/14 05:08:25;;;;;;;27.80;14.75;;;10.30;99.90;;;;;;5091319;28;20494;-66
2022/10/14 05:10:50;;;;;;;60.60;15.60;;;10.40;99.90;;;;;;5091885;28;20028;-67
2022/10/14 05:13:17;;;;;;;50.03;15.77;;;10.40;99.90;;;;;;5091939;28;20393;-65
2022/10/14 05:15:42;;;;;;;31.05;14.95;;;10.30;99.90;;;;;;5073926;28;20048;-65
2022/10/14 05:18:10;;;;;;;44.70;16.73;;;10.30;99.90;;;;;;5091668;28;20046;-66
2022/10/14 05:20:37;;;;;;;57.10;16.02;;;10.40;99.90;;;;;;5092907;28;20067;-65
2022/10/14 05:23:03;;;;;;;74.25;16.52;;;10.40;99.90;;;;;;5091447;28;20052;-67
2022/10/14 05:25:29;;;;;;;80.53;16.20;;;10.30;99.90;;;;;;5075785;28;20056;-68
2022/10/14 05:27:55;;;;;;;108.95;16.23;;;10.30;99.90;;;;;;5097413;28;20509;-65
2022/10/14 05:30:21;;;;;;;62.72;15.48;;;10.30;99.90;;;;;;5093610;28;20550;-67
2022/10/14 05:32:46;;;;;;;26.55;14.50;;;10.30;99.90;;;;;;5091568;28;20075;-67
2022/10/14 05:35:12;;;;;;;104.30;17.42;;;10.30;99.90;;;;;;5092838;28;20135;-66
2022/10/14 05:37:38;;;;;;;33.70;16.58;;;10.30;99.90;;;;;;5090663;28;20036;-66
2022/10/14 05:40:04;;;;;;;52.78;15.48;;;10.40;99.90;;;;;;5092399;28;20489;-66
2022/10/14 05:42:30;;;;;;;92.07;17.00;;;10.40;99.90;;;;;;5069073;28;20047;-65
2022/10/14 05:44:55;;;;;;;88.43;17.13;;;10.40;99.90;;;;;;5074395;28;20072;-65
2022/10/14 05:47:21;;;;;;;50.55;16.33;;;10.40;99.90;;;;;;5072414;28;20052;-68
2022/10/14 05:49:47;;;;;;;65.47;17.45;;;10.40;99.90;;;;;;5072613;28;20051;-67
2022/10/14 05:52:12;;;;;;;72.40;17.50;;;10.40;99.90;;;;;;5070051;28;20036;-67
2022/10/14 05:54:38;;;;;;;94.93;18.20;;;10.40;99.90;;;;;;5056598;28;20046;-69
2022/10/14 05:57:03;;;;;;;60.85;18.42;;;10.40;99.90;;;;;;5070367;28;20040;-67
2022/10/14 05:59:30;;;;;;;107.40;18.85;;;10.50;99.90;;;;;;5070272;28;20728;-66
2022/10/14 06:01:55;;;;;;;92.57;18.42;;;10.40;99.90;;;;;;5074445;28;20040;-67
2022/10/14 06:04:21;;;;;;;127.85;19.92;;;10.50;99.90;;;;;;5057012;28;20089;-66
2022/10/14 06:06:47;;;;;;;80.22;18.77;;;10.50;99.90;;;;;;5070821;28;20036;-64
2022/10/14 06:09:13;;;;;;;68.20;18.63;;;10.50;99.90;;;;;;5074676;28;20394;-66
2022/10/14 06:11:39;;;;;;;70.18;19.05;;;10.50;99.90;;;;;;5069325;28;20082;-66
2022/10/14 06:14:05;;;;;;;120.32;19.40;;;10.50;99.90;;;;;;5074190;28;20051;-67
2022/10/14 06:16:31;;;;;;;95.80;19.83;;;10.50;99.90;;;;;;5071867;28;20032;-67
2022/10/14 06:18:57;;;;;;;78.75;18.77;;;10.50;99.90;;;;;;5057487;28;20052;-66
2022/10/14 06:21:22;;;;;;;113.72;21.35;;;10.50;99.90;;;;;;5071954;28;20043;-67
2022/10/14 06:23:48;;;;;;;96.45;20.90;;;10.60;99.90;;;;;;5073708;28;20119;-64
2022/10/14 06:26:14;;;;;;;63.20;20.73;;;10.60;99.90;;;;;;5089301;28;20035;-67
2022/10/14 06:28:39;;;;;;;78.05;21.02;;;10.70;99.90;;;;;;5067896;28;20069;-66
2022/10/14 06:31:06;;;;;;;104.60;21.83;;;10.60;99.90;;;;;;5070629;28;20043;-68
2022/10/14 06:33:31;;;;;;;93.13;21.55;;;10.70;99.90;;;;;;5066958;28;20052;-68
2022/10/14 06:35:57;;;;;;;58.88;20.67;;;10.70;99.90;;;;;;5092040;28;20034;-69
2022/10/14 06:38:23;;;;;;;84.05;22.98;;;10.70;99.90;;;;;;5076393;28;20051;-68
2022/10/14 06:40:50;;;;;;;53.47;21.15;;;10.70;99.90;;;;;;5071519;28;20051;-66
2022/10/14 06:43:16;;;;;;;51.60;19.80;;;10.70;99.90;;;;;;5072878;28;20048;-66
2022/10/14 06:45:42;;;;;;;36.47;18.60;;;10.80;99.90;;;;;;5068732;28;20032;-67
2022/10/14 06:48:07;;;;;;;40.20;18.52;;;10.80;99.90;;;;;;5066515;28;20032;-66
2022/10/14 06:50:33;;;;;;;41.80;19.08;;;10.80;99.90;;;;;;5073464;28;20113;-66
2022/10/14 06:52:59;;;;;;;36.65;17.30;;;10.80;99.90;;;;;;5074033;28;20477;-67
2022/10/14 06:55:24;;;;;;;50.80;20.48;;;10.80;99.90;;;;;;5073337;28;20055;-69
2022/10/14 06:57:50;;;;;;;47.40;20.23;;;10.90;99.90;;;;;;5073211;28;20050;-69
2022/10/14 07:00:16;;;;;;;40.13;18.75;;;10.90;99.90;;;;;;5049579;28;20552;-68
2022/10/14 07:02:42;;;;;;;38.75;18.55;;;10.90;99.90;;;;;;5071047;28;20082;-63
2022/10/14 07:05:08;;;;;;;46.45;19.33;;;10.90;99.90;;;;;;5072628;28;20047;-67
2022/10/14 07:07:34;;;;;;;41.28;19.85;;;11.00;99.90;;;;;;5073095;28;20040;-65
2022/10/14 07:10:00;;;;;;;37.50;19.65;;;11.00;99.90;;;;;;5072496;28;20044;-68
2022/10/14 07:12:26;;;;;;;36.08;18.52;;;11.00;99.90;;;;;;5070115;28;20032;-67
2022/10/14 07:14:51;;;;;;;38.00;18.90;;;11.00;99.90;;;;;;5071756;28;20048;-66
2022/10/14 07:17:17;;;;;;;37.45;19.08;;;11.10;99.90;;;;;;5071359;28;20032;-65
2022/10/14 07:19:43;;;;;;;31.65;18.42;;;11.10;99.90;;;;;;5071979;28;20039;-69
2022/10/14 07:22:08;;;;;;;33.10;19.23;;;11.10;99.90;;;;;;5072401;28;20031;-67
2022/10/14 07:24:34;;;;;;;32.05;18.98;;;11.10;99.90;;;;;;5073076;28;20503;-68
2022/10/14 07:27:00;;;;;;;35.00;18.92;;;11.10;99.90;;;;;;5072787;28;20498;-67
2022/10/14 07:29:26;;;;;;;29.65;17.85;;;11.20;99.90;;;;;;5073179;28;20384;-66
2022/10/14 07:31:52;;;;;;;35.25;19.17;;;11.20;99.90;;;;;;5072436;28;20097;-65
2022/10/14 07:34:18;;;;;;;36.13;18.75;;;11.20;99.90;;;;;;5090793;28;20035;-68
2022/10/14 07:36:43;;;;;;;34.75;18.85;;;11.20;99.90;;;;;;5072804;28;20486;-66
2022/10/14 07:39:09;;;;;;;39.63;21.60;;;11.30;99.90;;;;;;5072547;28;20056;-66
2022/10/14 07:41:35;;;;;;;34.30;18.63;;;11.30;99.90;;;;;;5072492;28;20371;-65
2022/10/14 07:44:07;;;;;;;33.67;20.02;;;11.30;99.90;;;;;;5071760;28;20093;-67
2022/10/14 07:46:35;;;;;;;38.60;20.58;;;11.30;99.90;;;;;;5073067;28;20039;-66
2022/10/14 07:49:03;;;;;;;38.92;21.45;;;11.40;99.90;;;;;;5072366;28;20075;-66
2022/10/14 07:51:29;;;;;;;40.58;21.30;;;11.40;99.90;;;;;;5072861;28;20544;-66
2022/10/14 07:53:57;;;;;;;40.25;21.38;;;11.40;99.90;;;;;;5071965;28;20089;-66
2022/10/14 07:56:23;;;;;;;43.88;23.52;;;11.40;99.90;;;;;;5056005;28;20126;-66
2022/10/14 07:58:49;;;;;;;42.45;22.95;;;11.40;99.90;;;;;;5072693;28;20040;-65
2022/10/14 08:01:15;;;;;;;42.53;23.13;;;11.40;99.90;;;;;;5072267;28;20048;-65
2022/10/14 08:03:42;;;;;;;41.92;22.77;;;11.40;99.90;;;;;;5072465;28;20075;-68
2022/10/14 08:06:08;;;;;;;45.55;23.30;;;11.50;99.90;;;;;;5071754;28;20040;-66
2022/10/14 08:08:34;;;;;;;47.17;23.48;;;11.50;99.90;;;;;;5072312;28;20034;-66
2022/10/14 08:11:01;;;;;;;44.08;23.23;;;11.50;99.90;;;;;;5090098;28;20036;-65
2022/10/14 08:13:28;;;;;;;46.00;23.63;;;11.50;99.90;;;;;;5072372;28;20036;-66
2022/10/14 08:15:53;;;;;;;47.88;24.10;;;11.60;99.90;;;;;;5072504;28;20055;-67
2022/10/14 08:18:19;;;;;;;48.45;25.88;;;11.60;99.90;;;;;;5089955;28;20040;-67
2022/10/14 08:20:44;;;;;;;44.90;24.13;;;11.60;99.90;;;;;;5072630;28;20043;-66
2022/10/14 08:23:11;;;;;;;46.88;23.90;;;11.60;99.90;;;;;;5071900;28;20163;-66
2022/10/14 08:25:38;;;;;;;49.10;24.77;;;11.60;99.90;;;;;;5072183;28;20036;-67
2022/10/14 08:28:04;;;;;;;46.50;24.27;;;11.60;99.90;;;;;;5059134;28;20032;-66
2022/10/14 08:30:29;;;;;;;54.30;25.67;;;11.60;99.90;;;;;;5076461;28;20036;-65
2022/10/14 08:32:55;;;;;;;52.28;24.77;;;11.60;99.90;;;;;;5094434;28;20376;-66
2022/10/14 08:35:20;;;;;;;48.78;24.58;;;11.70;99.90;;;;;;5076207;28;20406;-69
2022/10/14 08:38:04;;;;;;;52.03;25.05;;;11.70;99.90;;;;;;5060094;28;20048;-66
2022/10/14 08:40:59;;;;;;;49.40;24.27;;;11.70;99.90;;;;;;5083515;28;20565;-67
2022/10/14 08:43:40;;;;;;;54.38;25.90;;;11.70;99.90;;;;;;5092749;28;20043;-64
2022/10/14 08:46:22;;;;;;;53.67;25.00;;;11.70;99.90;;;;;;5092770;28;20059;-65
2022/10/14 08:48:53;;;;;;;49.25;24.30;;;11.70;99.90;;;;;;5092900;28;20043;-67
2022/10/14 08:51:20;;;;;;;55.83;24.58;;;11.70;99.90;;;;;;5093004;28;20044;-66
2022/10/14 08:53:55;;;;;;;51.00;24.08;;;11.80;99.90;;;;;;5093138;28;20371;-67
2022/10/14 08:56:22;;;;;;;50.45;23.90;;;11.80;99.90;;;;;;5075451;28;20079;-66
2022/10/14 08:58:50;;;;;;;51.70;24.13;;;11.80;99.90;;;;;;5092792;28;20040;-64
2022/10/14 09:01:27;;;;;;;52.17;24.90;;;11.80;99.90;;;;;;5092429;28;20532;-67
2022/10/14 09:03:57;;;;;;;46.10;22.55;;;11.90;99.90;;;;;;5092704;28;20396;-67
2022/10/14 09:06:28;;;;;;;47.97;23.42;;;11.90;99.90;;;;;;5092577;28;20047;-68
2022/10/14 09:09:21;;;;;;;48.38;22.90;;;11.90;99.90;;;;;;5092807;28;20044;-64
2022/10/14 09:11:59;;;;;;;45.17;21.23;;;11.90;99.90;;;;;;4995063;28;20046;-67
2022/10/14 09:14:31;;;;;;;42.25;21.60;;;11.90;99.90;;;;;;4994905;28;20061;-68
2022/10/14 09:17:14;;;;;;;46.30;20.95;;;11.90;99.90;;;;;;4995041;28;20085;-65
2022/10/14 09:19:54;;;;;;;45.05;21.58;;;11.90;99.90;;;;;;4978699;28;20042;-68
2022/10/14 09:22:20;;;;;;;45.58;21.13;;;11.90;99.90;;;;;;4994543;28;20061;-66
2022/10/14 09:24:47;;;;;;;40.38;19.30;;;12.00;99.90;;;;;;4994453;28;20037;-66
2022/10/14 09:27:20;;;;;;;43.25;21.15;;;12.00;99.90;;;;;;4994459;28;20381;-69
2022/10/14 09:29:49;;;;;;;40.88;20.65;;;12.00;99.90;;;;;;4978403;28;20085;-67
2022/10/14 09:32:37;;;;;;;41.10;19.80;;;12.00;99.90;;;;;;4994692;28;20117;-67
2022/10/14 09:35:11;;;;;;;38.63;18.80;;;12.00;99.90;;;;;;4994440;28;20150;-65
2022/10/14 09:37:38;;;;;;;37.03;17.65;;;12.10;99.90;;;;;;5009991;28;20503;-68
2022/10/14 09:40:15;;;;;;;38.25;18.48;;;12.10;99.90;;;;;;4994270;28;20062;-67
2022/10/14 09:43:10;;;;;;;35.60;17.67;;;12.10;99.90;;;;;;4994211;28;20061;-66
2022/10/14 09:45:47;;;;;;;34.28;17.55;;;12.10;99.90;;;;;;4994099;28;20041;-68
2022/10/14 09:48:36;;;;;;;33.25;15.90;;;12.10;99.90;;;;;;5017434;28;20048;-66
2022/10/14 09:51:07;;;;;;;31.05;15.95;;;12.10;99.90;;;;;;5074493;28;20048;-67
2022/10/14 09:53:47;;;;;;;35.80;16.05;;;12.20;99.90;;;;;;5074566;28;20091;-67
2022/10/14 09:56:13;;;;;;;29.05;15.65;;;12.20;99.90;;;;;;5075018;28;20040;-64
2022/10/14 09:58:46;;;;;;;32.78;15.88;;;12.20;99.90;;;;;;5091396;28;20040;-67
2022/10/14 10:01:18;;;;;;;33.10;14.85;;;12.20;99.90;;;;;;5091350;28;20123;-65
2022/10/14 10:03:44;;;;;;;29.90;14.98;;;12.20;99.90;;;;;;5074423;28;20087;-66
2022/10/14 10:06:13;;;;;;;31.02;14.32;;;12.20;99.90;;;;;;5091293;28;20406;-65
2022/10/14 10:08:52;;;;;;;27.40;14.50;;;12.30;99.90;;;;;;5090969;28;20047;-66
2022/10/14 10:11:38;;;;;;;30.27;14.45;;;12.30;99.90;;;;;;5091925;28;20040;-64
2022/10/14 10:14:23;;;;;;;30.08;13.82;;;12.40;99.90;;;;;;5091475;28;20039;-68
2022/10/14 10:16:51;;;;;;;25.90;13.75;;;12.40;99.90;;;;;;5073690;28;20123;-68
2022/10/14 10:19:32;;;;;;;24.55;12.85;;;12.50;99.90;;;;;;5074114;28;20066;-67
2022/10/14 10:22:16;;;;;;;24.50;12.98;;;12.60;99.90;;;;;;5091542;28;20498;-66
2022/10/14 10:24:43;;;;;;;22.63;12.43;;;12.60;99.90;;;;;;5091110;28;20044;-65
2022/10/14 10:27:34;;;;;;;23.83;12.45;;;12.60;99.90;;;;;;5089170;28;20477;-66
2022/10/14 10:30:23;;;;;;;24.45;11.70;;;12.60;99.90;;;;;;5074862;28;20048;-67
2022/10/14 10:33:06;;;;;;;26.13;13.00;;;12.60;99.90;;;;;;5112728;27;20089;-64
2022/10/14 10:35:37;;;;;;;29.17;13.00;;;12.60;99.90;;;;;;5098064;28;20346;-67
2022/10/14 10:38:24;;;;;;;25.03;12.33;;;12.60;99.90;;;;;;5090926;28;20069;-66
2022/10/14 10:41:01;;;;;;;25.50;13.10;;;12.60;99.90;;;;;;5096356;28;20040;-66
2022/10/14 10:43:43;;;;;;;28.42;13.68;;;12.60;99.90;;;;;;5090650;28;20400;-65
2022/10/14 10:46:39;;;;;;;26.98;14.00;;;12.70;99.90;;;;;;5089645;28;20044;-66
2022/10/14 10:49:18;;;;;;;27.27;13.23;;;12.70;99.90;;;;;;5116138;27;20150;-68
2022/10/14 10:51:56;;;;;;;29.00;13.30;;;12.70;99.90;;;;;;5089453;28;20517;-67
2022/10/14 10:55:03;;;;;;;27.50;13.25;;;12.80;99.90;;;;;;5090754;28;20090;-68
2022/10/14 10:58:00;;;;;;;29.52;14.73;;;12.80;99.90;;;;;;5090641;28;20051;-69
2022/10/14 11:00:31;;;;;;;33.22;15.13;;;12.90;99.90;;;;;;5074155;28;20055;-65
2022/10/14 11:03:24;;;;;;;33.50;15.55;;;13.00;99.90;;;;;;5072504;28;20047;-66
2022/10/14 11:05:52;;;;;;;;;;;13.00;99.90;;;;;;5115218;27;20103;-66
2022/10/14 11:14:52;;;;;;;37.10;17.98;;;13.10;99.90;;;;;;5031585;28;20080;-67
2022/10/14 11:17:48;;;;;;;40.67;18.67;;;13.10;99.90;;;;;;5031180;28;20123;-67
2022/10/14 11:20:16;;;;;;;39.38;19.35;;;13.10;99.90;;;;;;5030899;28;20049;-66
2022/10/14 11:23:05;;;;;;;40.35;19.80;;;13.20;99.90;;;;;;5032054;28;20396;-67
2022/10/14 11:25:52;;;;;;;40.40;19.40;;;13.20;99.90;;;;;;5031738;28;20454;-67
2022/10/14 11:28:39;;;;;;;43.88;20.35;;;13.20;99.90;;;;;;5033021;28;20052;-66
2022/10/14 11:31:19;;;;;;;40.92;19.95;;;13.30;99.90;;;;;;5031276;28;20049;-66
2022/10/14 11:34:13;;;;;;;44.20;20.83;;;13.20;99.90;;;;;;5013070;28;20044;-66
2022/10/14 11:36:59;;;;;;;44.42;20.30;;;13.30;99.90;;;;;;5061057;28;20041;-67
2022/10/14 11:39:31;;;;;;;42.38;20.33;;;13.30;99.90;;;;;;5030819;28;20049;-69
2022/10/14 11:42:12;;;;;;;41.92;20.63;;;13.30;99.90;;;;;;5030815;28;20048;-65
2022/10/14 11:44:41;;;;;;;43.78;20.10;;;13.40;99.90;;;;;;5031057;28;20052;-68
2022/10/14 11:47:30;;;;;;;44.13;21.20;;;13.40;99.90;;;;;;5059974;28;20074;-67
2022/10/14 11:50:30;;;;;;;39.42;20.13;;;13.40;99.90;;;;;;5090009;28;20038;-66
2022/10/14 11:53:13;;;;;;;39.72;20.23;;;13.50;99.90;;;;;;5121362;27;20054;-66
2022/10/14 11:55:44;;;;;;;35.55;19.70;;;13.50;99.90;;;;;;5088181;28;20036;-65
2022/10/14 11:58:17;;;;;;;33.95;18.20;;;13.50;99.90;;;;;;5087022;28;20048;-68
2022/10/14 12:00:46;;;;;;;34.92;18.27;;;13.60;99.90;;;;;;5088421;28;20509;-67
2022/10/14 12:03:23;;;;;;;33.45;17.92;;;13.60;99.90;;;;;;5087979;28;20047;-66
2022/10/14 12:06:01;;;;;;;34.00;18.45;;;13.70;99.90;;;;;;5089599;28;20478;-68
2022/10/14 12:08:29;;;;;;;30.77;16.95;;;13.70;99.90;;;;;;5082017;28;20031;-65
2022/10/14 12:11:06;;;;;;;28.42;16.55;;;13.80;99.90;;;;;;5089842;28;20479;-66
2022/10/14 12:13:40;;;;;;;30.77;16.98;;;13.80;99.90;;;;;;5089446;28;20047;-68
2022/10/14 12:16:12;;;;;;;22.20;14.77;;;13.90;99.90;;;;;;5089099;28;20093;-68
2022/10/14 12:18:38;;;;;;;22.08;14.40;;;14.00;99.90;;;;;;5089738;28;20478;-69
2022/10/14 12:21:26;;;;;;;20.20;13.40;;;14.00;99.90;;;;;;5088932;28;20047;-65
2022/10/14 12:24:04;;;;;;;20.23;13.30;;;14.00;99.90;;;;;;5089425;28;20044;-68
2022/10/14 12:26:53;;;;;;;17.52;12.57;;;14.10;99.90;;;;;;5081564;28;20040;-69
2022/10/14 12:29:22;;;;;;;17.38;12.55;;;14.10;99.90;;;;;;5087845;28;20032;-68
2022/10/14 12:32:05;;;;;;;18.10;12.48;;;14.20;99.90;;;;;;5089235;28;20110;-66
2022/10/14 12:34:38;;;;;;;15.02;11.65;;;14.20;99.90;;;;;;5089186;28;20040;-64
2022/10/14 12:37:22;;;;;;;18.13;11.52;;;14.20;99.90;;;;;;5072119;28;20502;-69
2022/10/14 12:39:51;;;;;;;14.77;11.20;;;14.20;99.90;;;;;;5083532;28;20056;-65
2022/10/14 12:42:18;;;;;;;12.50;9.82;;;14.30;99.90;;;;;;5088854;28;20097;-67
2022/10/14 12:44:50;;;;;;;10.77;9.60;;;14.30;99.90;;;;;;5089023;28;20044;-67
2022/10/14 12:47:27;;;;;;;10.80;9.05;;;14.30;99.90;;;;;;5090131;28;20091;-67
2022/10/14 12:49:55;;;;;;;11.55;9.30;;;14.30;99.90;;;;;;5088751;28;20036;-66